Time;durP1;ratioP1;P1;durP2;ratioP2;P2;SDS_P1;SDS_P2;PMS_P1;PMS_P2;Temp;Humidity;BMP_temperature;BMP_pressure;BME280_temperature;BME280_humidity;BME280_pressure;Samples;Min_cycle;Max_cycle;Signal;HPM_P1;HPM_P2
2022/05/25 00:00:05;;;;;;;;;;;;;;;-145.19;100.00;57938.22;4992332;28;19922;-73
2022/05/25 00:02:31;;;;;;;;;;;;;;;-145.19;100.00;57938.22;4991412;28;19914;-73
2022/05/25 00:04:56;;;;;;;;;;;;;;;-145.19;100.00;57938.22;4991596;28;19928;-73
2022/05/25 00:07:22;;;;;;;;;;;;;;;-145.19;100.00;57938.22;4989861;28;20354;-73
2022/05/25 00:09:49;;;;;;;;;;;;;;;-145.19;100.00;57938.22;4990396;28;20500;-72
2022/05/25 00:12:15;;;;;;;;;;;;;;;-145.19;100.00;57938.22;4989923;28;19968;-72
2022/05/25 00:14:41;;;;;;;;;;;;;;;-145.19;100.00;57938.22;4990285;28;19913;-72
2022/05/25 00:17:07;;;;;;;;;;;;;;;-145.19;100.00;57938.22;4991340;28;19925;-73
2022/05/25 00:22:16;;;;;;;;;;;;;;;-145.19;100.00;57938.22;4992112;28;20300;-73
2022/05/25 00:24:41;;;;;;;;;;;;;;;-145.19;100.00;57938.22;4991442;28;20012;-73
2022/05/25 00:27:06;;;;;;;;;;;;;;;-145.19;100.00;57938.22;4991386;28;20287;-73
2022/05/25 00:29:32;;;;;;;;;;;;;;;-145.19;100.00;57938.22;4991458;28;19924;-73
2022/05/25 00:31:59;;;;;;;;;;;;;;;-145.19;100.00;57938.22;4991520;28;19920;-73
2022/05/25 00:34:24;;;;;;;;;;;;;;;-145.19;100.00;57938.22;4991377;28;19913;-73
2022/05/25 00:36:49;;;;;;;;;;;;;;;-145.19;100.00;57938.22;4991086;28;19925;-73
2022/05/25 00:39:14;;;;;;;;;;;;;;;-145.19;100.00;57938.22;4991482;28;19948;-73
2022/05/25 00:41:40;;;;;;;;;;;;;;;-145.19;100.00;57938.22;4990870;28;20079;-73
2022/05/25 00:44:06;;;;;;;;;;;;;;;-145.19;100.00;57938.22;4991774;28;19936;-73
2022/05/25 00:46:32;;;;;;;;;;;;;;;-145.19;100.00;57938.22;4990876;28;20004;-72
2022/05/25 00:49:06;;;;;;;;;;;;;;;-145.19;100.00;57938.22;4991506;28;19914;-73
2022/05/25 00:51:37;;;;;;;;;;;;;;;-145.19;100.00;57938.22;4990545;28;20449;-73
2022/05/25 00:54:06;;;;;;;;;;;;;;;-145.19;100.00;57938.22;4991595;28;19949;-73
2022/05/25 00:56:32;;;;;;;;;;;;;;;-145.19;100.00;57938.22;4991024;28;20271;-73
2022/05/25 00:59:01;;;;;;;;;;;;;;;-145.19;100.00;57938.22;4990697;28;19914;-73
2022/05/25 01:01:26;;;;;;;;;;;;;;;-145.19;100.00;57938.22;4990639;28;20397;-73
2022/05/25 01:03:52;;;;;;;;;;;;;;;-145.19;100.00;57938.22;4990848;28;19922;-73
2022/05/25 01:06:23;;;;;;;;;;;;;;;-145.19;100.00;57938.22;4975446;28;19947;-73
2022/05/25 01:19:47;;;;;;;;;;;;;;;-145.19;100.00;57938.22;4976769;28;19918;-73
2022/05/25 01:22:15;;;;;;;;;;;;;;;-145.19;100.00;57938.22;4994590;28;19924;-73
2022/05/25 01:25:00;;;;;;;;;;;;;;;-145.19;100.00;57938.22;4995134;28;20048;-73
2022/05/25 01:27:35;;;;;;;;;;;;;;;-145.19;100.00;57938.22;4994210;28;20429;-73
2022/05/25 01:30:00;;;;;;;;;;;;;;;-145.19;100.00;57938.22;4994753;28;19989;-73
2022/05/25 01:32:37;;;;;;;;;;;;;;;-145.19;100.00;57938.22;4994474;28;19914;-73
2022/05/25 01:35:09;;;;;;;;;;;;;;;-145.19;100.00;57938.22;4994851;28;19914;-73
2022/05/25 01:37:37;;;;;;;;;;;;;;;-145.19;100.00;57938.22;4993561;28;19924;-73
2022/05/25 01:40:09;;;;;;;;;;;;;;;-145.19;100.00;57938.22;4994868;28;20357;-73
2022/05/25 01:42:39;;;;;;;;;;;;;;;-145.19;100.00;57938.22;4994100;28;19929;-73
2022/05/25 01:45:07;;;;;;;;;;;;;;;-145.19;100.00;57938.22;4994724;28;19980;-73
2022/05/25 01:47:33;;;;;;;;;;;;;;;-145.19;100.00;57938.22;4993970;28;20387;-73
2022/05/25 01:50:05;;;;;;;;;;;;;;;-145.19;100.00;57938.22;4994786;28;19998;-73
2022/05/25 01:52:36;;;;;;;;;;;;;;;-145.19;100.00;57938.22;4993912;28;20442;-73
2022/05/25 01:55:06;;;;;;;;;;;;;;;-145.19;100.00;57938.22;4993959;28;19961;-74
2022/05/25 01:57:33;;;;;;;;;;;;;;;-145.19;100.00;57938.22;4993759;28;19913;-73
2022/05/25 01:59:58;;;;;;;;;;;;;;;-145.19;100.00;57938.22;4994773;28;19914;-73
2022/05/25 02:05:09;;;;;;;;;;;;;;;-145.19;100.00;57938.22;5034140;28;20352;-73
2022/05/25 02:07:35;;;;;;;;;;;;;;;-145.19;100.00;57938.22;5009783;28;19920;-73
2022/05/25 02:10:10;;;;;;;;;;;;;;;-145.19;100.00;57938.22;5008972;28;20007;-73
2022/05/25 02:12:40;;;;;;;;;;;;;;;-145.19;100.00;57938.22;5033234;28;19917;-73
2022/05/25 02:15:21;;;;;;;;;;;;;;;-145.19;100.00;57938.22;5033124;28;20373;-73
2022/05/25 02:18:05;;;;;;;;;;;;;;;-145.19;100.00;57938.22;5031946;28;19913;-73
2022/05/25 02:20:50;;;;;;;;;;;;;;;-145.19;100.00;57938.22;5033550;28;20365;-73
2022/05/25 02:23:18;;;;;;;;;;;;;;;-145.19;100.00;57938.22;5032278;28;19943;-73
2022/05/25 02:25:49;;;;;;;;;;;;;;;-145.19;100.00;57938.22;5033206;28;19935;-73
2022/05/25 02:28:14;;;;;;;;;;;;;;;-145.19;100.00;57938.22;5032786;28;20356;-73
2022/05/25 02:30:42;;;;;;;;;;;;;;;-145.19;100.00;57938.22;5033169;28;19959;-73
2022/05/25 02:33:13;;;;;;;;;;;;;;;-145.19;100.00;57938.22;5032607;28;20395;-73
2022/05/25 02:35:40;;;;;;;;;;;;;;;-145.19;100.00;57938.22;5032854;28;19924;-73
2022/05/25 02:38:06;;;;;;;;;;;;;;;-145.19;100.00;57938.22;5032655;28;19913;-73
2022/05/25 02:40:35;;;;;;;;;;;;;;;-145.19;100.00;57938.22;5033094;28;19917;-73
2022/05/25 02:43:01;;;;;;;;;;;;;;;-145.19;100.00;57938.22;5032423;28;19913;-73
2022/05/25 02:45:26;;;;;;;;;;;;;;;-145.19;100.00;57938.22;5032991;28;19920;-73
2022/05/25 02:47:51;;;;;;;;;;;;;;;-145.19;100.00;57938.22;5032446;28;19928;-73
2022/05/25 02:50:17;;;;;;;;;;;;;;;-145.19;100.00;57938.22;5014865;28;19928;-73
2022/05/25 02:52:42;;;;;;;;;;;;;;;-145.19;100.00;57938.22;5032554;28;19928;-73
2022/05/25 02:55:08;;;;;;;;;;;;;;;-145.19;100.00;57938.22;5032522;28;19943;-73
2022/05/25 02:57:33;;;;;;;;;;;;;;;-145.19;100.00;57938.22;5032168;28;20340;-73
2022/05/25 02:59:59;;;;;;;;;;;;;;;-145.19;100.00;57938.22;5032690;28;20675;-73
2022/05/25 03:02:24;;;;;;;;;;;;;;;-145.19;100.00;57938.22;5031750;28;19994;-73
2022/05/25 03:04:49;;;;;;;;;;;;;;;-145.19;100.00;57938.22;5032803;28;19963;-73
2022/05/25 03:07:15;;;;;;;;;;;;;;;-145.19;100.00;57938.22;5031615;28;19947;-73
2022/05/25 03:09:40;;;;;;;;;;;;;;;-145.19;100.00;57938.22;5032349;28;19959;-73
2022/05/25 03:12:06;;;;;;;;;;;;;;;-145.19;100.00;57938.22;5032208;28;19917;-73
2022/05/25 03:14:31;;;;;;;;;;;;;;;-145.19;100.00;57938.22;5032152;28;19924;-73
2022/05/25 03:16:58;;;;;;;;;;;;;;;-145.19;100.00;57938.22;5032295;28;20461;-73
2022/05/25 03:19:24;;;;;;;;;;;;;;;-145.19;100.00;57938.22;5031795;28;19968;-73
2022/05/25 03:21:49;;;;;;;;;;;;;;;-145.19;100.00;57938.22;5032231;28;20039;-73
2022/05/25 03:24:15;;;;;;;;;;;;;;;-145.19;100.00;57938.22;5031840;28;19917;-73
2022/05/25 03:26:40;;;;;;;;;;;;;;;-145.19;100.00;57938.22;5031878;28;20377;-73
2022/05/25 03:29:06;;;;;;;;;;;;;;;-145.19;100.00;57938.22;5031312;28;20395;-74
2022/05/25 03:31:32;;;;;;;;;;;;;;;-145.19;100.00;57938.22;5032121;28;19921;-73
2022/05/25 03:33:57;;;;;;;;;;;;;;;-145.19;100.00;57938.22;5031717;28;19917;-73
2022/05/25 03:36:23;;;;;;;;;;;;;;;-145.19;100.00;57938.22;5031659;28;19971;-73
2022/05/25 03:38:48;;;;;;;;;;;;;;;-145.19;100.00;57938.22;5031265;28;19925;-74
2022/05/25 03:41:17;;;;;;;;;;;;;;;-145.19;100.00;57938.22;5031785;28;19994;-73
2022/05/25 03:43:43;;;;;;;;;;;;;;;-145.19;100.00;57938.22;5031466;28;19925;-74
2022/05/25 03:46:08;;;;;;;;;;;;;;;-145.19;100.00;57938.22;5031611;28;19959;-73
2022/05/25 03:48:34;;;;;;;;;;;;;;;-145.19;100.00;57938.22;5031488;28;20569;-74
2022/05/25 03:50:59;;;;;;;;;;;;;;;-145.19;100.00;57938.22;5031835;28;19993;-73
2022/05/25 03:53:25;;;;;;;;;;;;;;;-145.19;100.00;57938.22;5030944;28;19963;-74
2022/05/25 03:55:50;;;;;;;;;;;;;;;-145.19;100.00;57938.22;5031748;28;20016;-74
2022/05/25 03:58:15;;;;;;;;;;;;;;;-145.19;100.00;57938.22;5031035;28;19917;-73
2022/05/25 04:00:40;;;;;;;;;;;;;;;-145.19;100.00;57938.22;5031674;28;20392;-74
2022/05/25 04:03:06;;;;;;;;;;;;;;;-145.19;100.00;57938.22;5030459;28;19917;-73
2022/05/25 04:05:32;;;;;;;;;;;;;;;-145.19;100.00;57938.22;5013625;28;19917;-73
2022/05/25 04:07:58;;;;;;;;;;;;;;;-145.19;100.00;57938.22;5031125;28;19917;-74
2022/05/25 04:10:24;;;;;;;;;;;;;;;-145.19;100.00;57938.22;5027897;28;20056;-73
2022/05/25 04:12:49;;;;;;;;;;;;;;;-145.19;100.00;57938.22;5019886;28;19924;-74
2022/05/25 04:15:16;;;;;;;;;;;;;;;-145.19;100.00;57938.22;5019122;28;20389;-73
2022/05/25 04:17:41;;;;;;;;;;;;;;;-145.19;100.00;57938.22;5010961;28;19917;-73
2022/05/25 04:20:08;;;;;;;;;;;;;;;-145.19;100.00;57938.22;5011133;28;19929;-74
2022/05/25 04:22:35;;;;;;;;;;;;;;;-145.19;100.00;57938.22;5010862;28;19924;-74
2022/05/25 04:25:02;;;;;;;;;;;;;;;-145.19;100.00;57938.22;5010181;28;20004;-74
2022/05/25 04:27:27;;;;;;;;;;;;;;;-145.19;100.00;57938.22;5009805;28;19967;-74
2022/05/25 04:29:52;;;;;;;;;;;;;;;-145.19;100.00;57938.22;5013879;28;19921;-74
2022/05/25 04:32:18;;;;;;;;;;;;;;;-145.19;100.00;57938.22;5020378;28;19979;-74
2022/05/25 04:34:43;;;;;;;;;;;;;;;-145.19;100.00;57938.22;5025984;28;20503;-74
2022/05/25 04:39:53;;;;;;;;;;;;;;;-145.19;100.00;57938.22;5030844;28;19963;-74
2022/05/25 04:42:18;;;;;;;;;;;;;;;-145.19;100.00;57938.22;5030199;28;19921;-73
2022/05/25 04:44:44;;;;;;;;;;;;;;;-145.19;100.00;57938.22;5030567;28;19932;-74
2022/05/25 04:47:09;;;;;;;;;;;;;;;-145.19;100.00;57938.22;5030439;28;19992;-74
2022/05/25 04:49:34;;;;;;;;;;;;;;;-145.19;100.00;57938.22;5030381;28;19917;-74
2022/05/25 04:52:00;;;;;;;;;;;;;;;-145.19;100.00;57938.22;5031016;28;19913;-74
2022/05/25 04:54:25;;;;;;;;;;;;;;;-145.19;100.00;57938.22;5030048;28;19917;-74
2022/05/25 04:59:34;;;;;;;;;;;;;;;-145.19;100.00;57938.22;5030618;28;19967;-74
2022/05/25 05:01:59;;;;;;;;;;;;;;;-145.19;100.00;57938.22;5030385;28;19924;-74
2022/05/25 05:04:26;;;;;;;;;;;;;;;-145.19;100.00;57938.22;5029954;28;19921;-74
2022/05/25 05:06:52;;;;;;;;;;;;;;;-145.19;100.00;57938.22;5030507;28;20447;-74
2022/05/25 05:09:18;;;;;;;;;;;;;;;-145.19;100.00;57938.22;5030131;28;19917;-74
2022/05/25 05:11:44;;;;;;;;;;;;;;;-145.19;100.00;57938.22;5030484;28;19985;-74
2022/05/25 05:14:09;;;;;;;;;;;;;;;-145.19;100.00;57938.22;5029977;28;19917;-74
2022/05/25 05:16:34;;;;;;;;;;;;;;;-145.19;100.00;57938.22;5006942;28;19979;-73
2022/05/25 05:19:00;;;;;;;;;;;;;;;-145.19;100.00;57938.22;5019709;28;19913;-74
2022/05/25 05:21:25;;;;;;;;;;;;;;;-145.19;100.00;57938.22;5020327;28;19921;-74
2022/05/25 05:23:50;;;;;;;;;;;;;;;-145.19;100.00;57938.22;5021347;28;19925;-73
2022/05/25 05:26:15;;;;;;;;;;;;;;;-145.19;100.00;57938.22;5012176;28;19957;-73
2022/05/25 05:28:42;;;;;;;;;;;;;;;-145.19;100.00;57938.22;5010316;28;19921;-74
2022/05/25 05:31:07;;;;;;;;;;;;;;;-145.19;100.00;57938.22;5019006;28;19921;-73
2022/05/25 05:33:33;;;;;;;;;;;;;;;-145.19;100.00;57938.22;5029383;28;19928;-73
2022/05/25 05:36:04;;;;;;;;;;;;;;;-145.19;100.00;57938.22;5027062;28;19970;-73
2022/05/25 05:38:30;;;;;;;;;;;;;;;-145.19;100.00;57938.22;5022276;28;20362;-74
2022/05/25 05:40:56;;;;;;;;;;;;;;;-145.19;100.00;57938.22;5029831;28;19917;-74
2022/05/25 05:43:21;;;;;;;;;;;;;;;-145.19;100.00;57938.22;5029153;28;19917;-74
2022/05/25 05:45:47;;;;;;;;;;;;;;;-145.19;100.00;57938.22;5029858;28;19967;-73
2022/05/25 05:48:20;;;;;;;;;;;;;;;-145.19;100.00;57938.22;5029804;28;19921;-73
2022/05/25 05:50:47;;;;;;;;;;;;;;;-145.19;100.00;57938.22;5030315;28;20348;-74
2022/05/25 05:53:13;;;;;;;;;;;;;;;-145.19;100.00;57938.22;4997950;28;20153;-73
2022/05/25 05:55:40;;;;;;;;;;;;;;;-145.19;100.00;57938.22;5033557;28;20296;-73
2022/05/25 05:58:05;;;;;;;;;;;;;;;-145.19;100.00;57938.22;5033190;28;19924;-74
2022/05/25 06:00:31;;;;;;;;;;;;;;;-145.19;100.00;57938.22;5033814;28;20301;-73
2022/05/25 06:02:56;;;;;;;;;;;;;;;-145.19;100.00;57938.22;5020567;28;20033;-73
2022/05/25 06:05:21;;;;;;;;;;;;;;;-145.19;100.00;57938.22;5015685;28;19929;-73
2022/05/25 06:07:46;;;;;;;;;;;;;;;-145.19;100.00;57938.22;4995411;28;19918;-73
2022/05/25 06:10:12;;;;;;;;;;;;;;;-145.19;100.00;57938.22;4996007;28;19932;-73
2022/05/25 06:12:37;;;;;;;;;;;;;;;-145.19;100.00;57938.22;5013211;28;20004;-74
2022/05/25 06:19:25;;;;;;;;;;;;;;;-145.19;100.00;57938.22;5013636;28;19917;-73
2022/05/25 06:20:32;;;;;;;;;;;;;;;-145.19;100.00;57938.22;5014030;28;19924;-73
2022/05/25 06:22:57;;;;;;;;;;;;;;;-145.19;100.00;57938.22;5011912;28;19921;-73
2022/05/25 06:25:23;;;;;;;;;;;;;;;-145.19;100.00;57938.22;5013317;28;19917;-73
2022/05/25 06:27:48;;;;;;;;;;;;;;;-145.19;100.00;57938.22;5013099;28;20362;-73
2022/05/25 06:30:13;;;;;;;;;;;;;;;-145.19;100.00;57938.22;5013149;28;19921;-73
2022/05/25 06:32:38;;;;;;;;;;;;;;;-145.19;100.00;57938.22;5013029;28;19925;-73
2022/05/25 06:35:04;;;;;;;;;;;;;;;-145.19;100.00;57938.22;5012947;28;19917;-73
2022/05/25 06:37:30;;;;;;;;;;;;;;;-145.19;100.00;57938.22;5013126;28;19930;-73
2022/05/25 06:39:55;;;;;;;;;;;;;;;-145.19;100.00;57938.22;5015292;28;19917;-73
2022/05/25 06:42:20;;;;;;;;;;;;;;;-145.19;100.00;57938.22;5032462;28;19932;-73
2022/05/25 06:44:46;;;;;;;;;;;;;;;-145.19;100.00;57938.22;5032307;28;20320;-73
2022/05/25 06:47:17;;;;;;;;;;;;;;;-145.19;100.00;57938.22;5032356;28;19999;-73
2022/05/25 06:49:43;;;;;;;;;;;;;;;-145.19;100.00;57938.22;5014609;28;19944;-73
2022/05/25 06:52:09;;;;;;;;;;;;;;;-145.19;100.00;57938.22;5032273;28;20358;-73
2022/05/25 06:54:34;;;;;;;;;;;;;;;-145.19;100.00;57938.22;5032187;28;19917;-73
2022/05/25 06:56:59;;;;;;;;;;;;;;;-145.19;100.00;57938.22;5032639;28;20293;-73
2022/05/25 06:59:24;;;;;;;;;;;;;;;-145.19;100.00;57938.22;5031784;28;19917;-73
2022/05/25 07:01:50;;;;;;;;;;;;;;;-145.19;100.00;57938.22;5031430;28;19955;-73
2022/05/25 07:04:15;;;;;;;;;;;;;;;-145.19;100.00;57938.22;5030889;28;20032;-73
2022/05/25 07:06:40;;;;;;;;;;;;;;;-145.19;100.00;57938.22;5032414;28;19925;-73
2022/05/25 07:09:06;;;;;;;;;;;;;;;-145.19;100.00;57938.22;5014358;28;19917;-73
2022/05/25 07:11:33;;;;;;;;;;;;;;;-145.19;100.00;57938.22;5032338;28;19947;-73
2022/05/25 07:13:59;;;;;;;;;;;;;;;-145.19;100.00;57938.22;5031005;28;19921;-73
2022/05/25 07:16:24;;;;;;;;;;;;;;;-145.19;100.00;57938.22;5032310;28;19917;-73
2022/05/25 07:18:50;;;;;;;;;;;;;;;-145.19;100.00;57938.22;5031821;28;20301;-74
2022/05/25 07:21:17;;;;;;;;;;;;;;;-145.19;100.00;57938.22;5031706;28;19936;-73
2022/05/25 07:23:42;;;;;;;;;;;;;;;-145.19;100.00;57938.22;5030628;28;19913;-73
2022/05/25 07:26:08;;;;;;;;;;;;;;;-145.19;100.00;57938.22;5031594;28;20388;-74
2022/05/25 07:28:35;;;;;;;;;;;;;;;-145.19;100.00;57938.22;5031697;28;19927;-73
2022/05/25 07:31:02;;;;;;;;;;;;;;;-145.19;100.00;57938.22;5032010;28;19921;-73
2022/05/25 07:33:28;;;;;;;;;;;;;;;-145.19;100.00;57938.22;5031212;28;20344;-73
2022/05/25 07:35:54;;;;;;;;;;;;;;;-145.19;100.00;57938.22;5031858;28;19913;-73
2022/05/25 07:38:19;;;;;;;;;;;;;;;-145.19;100.00;57938.22;5031064;28;19913;-73
2022/05/25 07:40:46;;;;;;;;;;;;;;;-145.19;100.00;57938.22;5031846;28;19960;-73
2022/05/25 07:43:13;;;;;;;;;;;;;;;-145.19;100.00;57938.22;5030380;28;19924;-74
2022/05/25 07:45:39;;;;;;;;;;;;;;;-145.19;100.00;57938.22;5031541;28;19917;-73
2022/05/25 07:48:04;;;;;;;;;;;;;;;-145.19;100.00;57938.22;5013296;28;19913;-73
2022/05/25 07:50:30;;;;;;;;;;;;;;;-145.19;100.00;57938.22;5031346;28;19921;-73
2022/05/25 07:52:57;;;;;;;;;;;;;;;-145.19;100.00;57938.22;5031256;28;19975;-74
2022/05/25 07:55:22;;;;;;;;;;;;;;;-145.19;100.00;57938.22;5031113;28;20375;-73
2022/05/25 07:57:48;;;;;;;;;;;;;;;-145.19;100.00;57938.22;5031544;28;20004;-73
2022/05/25 08:00:14;;;;;;;;;;;;;;;-145.19;100.00;57938.22;5030599;28;19921;-73
2022/05/25 08:05:46;;;;;;;;;;;;;;;-145.19;100.00;57938.22;5031036;28;19924;-73
2022/05/25 08:08:14;;;;;;;;;;;;;;;-145.19;100.00;57938.22;5030725;28;19913;-73
2022/05/25 08:10:40;;;;;;;;;;;;;;;-145.19;100.00;57938.22;5031439;28;19966;-73
2022/05/25 08:13:06;;;;;;;;;;;;;;;-145.19;100.00;57938.22;5031163;28;19913;-73
2022/05/25 08:15:33;;;;;;;;;;;;;;;-145.19;100.00;57938.22;5029649;28;20392;-73
2022/05/25 08:17:59;;;;;;;;;;;;;;;-145.19;100.00;57938.22;5030833;28;19917;-73
2022/05/25 08:20:24;;;;;;;;;;;;;;;-145.19;100.00;57938.22;5030704;28;19913;-73
2022/05/25 08:22:49;;;;;;;;;;;;;;;-145.19;100.00;57938.22;5030894;28;19961;-73
2022/05/25 08:25:15;;;;;;;;;;;;;;;-145.19;100.00;57938.22;5028365;28;20011;-73
2022/05/25 08:27:41;;;;;;;;;;;;;;;-145.19;100.00;57938.22;5029731;28;19917;-73
2022/05/25 08:30:11;;;;;;;;;;;;;;;-145.19;100.00;57938.22;5030609;28;19921;-73
2022/05/25 08:32:36;;;;;;;;;;;;;;;-145.19;100.00;57938.22;5030752;28;19975;-73
2022/05/25 08:35:02;;;;;;;;;;;;;;;-145.19;100.00;57938.22;5028896;28;20365;-73
2022/05/25 08:37:27;;;;;;;;;;;;;;;-145.19;100.00;57938.22;5030501;28;20365;-73
2022/05/25 08:39:52;;;;;;;;;;;;;;;-145.19;100.00;57938.22;5030548;28;19943;-73
2022/05/25 08:42:19;;;;;;;;;;;;;;;-145.19;100.00;57938.22;5030439;28;20047;-73
2022/05/25 08:44:46;;;;;;;;;;;;;;;-145.19;100.00;57938.22;5030291;28;19948;-73
2022/05/25 08:47:12;;;;;;;;;;;;;;;-145.19;100.00;57938.22;5030375;28;19925;-73
2022/05/25 08:49:40;;;;;;;;;;;;;;;-145.19;100.00;57938.22;5030318;28;20063;-73
2022/05/25 08:52:17;;;;;;;;;;;;;;;-145.19;100.00;57938.22;5030578;28;19919;-73
2022/05/25 08:54:42;;;;;;;;;;;;;;;-145.19;100.00;57938.22;5028822;28;19913;-73
2022/05/25 08:57:17;;;;;;;;;;;;;;;-145.19;100.00;57938.22;5030477;28;19924;-73
2022/05/25 08:59:47;;;;;;;;;;;;;;;-145.19;100.00;57938.22;5030005;28;19921;-73
2022/05/25 09:02:31;;;;;;;;;;;;;;;-145.19;100.00;57938.22;5030132;28;19923;-73
2022/05/25 09:05:16;;;;;;;;;;;;;;;-145.19;100.00;57938.22;5030177;28;19913;-73
2022/05/25 09:07:45;;;;;;;;;;;;;;;-145.19;100.00;57938.22;5029257;28;20007;-73
2022/05/25 09:10:12;;;;;;;;;;;;;;;-145.19;100.00;57938.22;5028416;28;19935;-73
2022/05/25 09:12:52;;;;;;;;;;;;;;;-145.19;100.00;57938.22;5030358;28;20319;-73
2022/05/25 09:15:23;;;;;;;;;;;;;;;-145.19;100.00;57938.22;5029846;28;19921;-73
2022/05/25 09:17:58;;;;;;;;;;;;;;;-145.19;100.00;57938.22;5030077;28;19944;-73
2022/05/25 09:20:31;;;;;;;;;;;;;;;-145.19;100.00;57938.22;5029447;28;19924;-73
2022/05/25 09:22:57;;;;;;;;;;;;;;;-145.19;100.00;57938.22;5029650;28;20011;-73
2022/05/25 09:25:24;;;;;;;;;;;;;;;-145.19;100.00;57938.22;5010202;28;19928;-73
2022/05/25 09:27:56;;;;;;;;;;;;;;;-145.19;100.00;57938.22;5011955;28;19961;-73
2022/05/25 09:30:22;;;;;;;;;;;;;;;-145.19;100.00;57938.22;4996546;28;19913;-73
2022/05/25 09:32:47;;;;;;;;;;;;;;;-145.19;100.00;57938.22;5014245;28;19967;-73
2022/05/25 09:35:15;;;;;;;;;;;;;;;-145.19;100.00;57938.22;5013730;28;19925;-73
2022/05/25 09:37:54;;;;;;;;;;;;;;;-145.19;100.00;57938.22;5014274;28;19917;-73
2022/05/25 09:40:24;;;;;;;;;;;;;;;-145.19;100.00;57938.22;5018715;28;19921;-73
2022/05/25 09:42:51;;;;;;;;;;;;;;;-145.19;100.00;57938.22;5034039;28;19918;-73
2022/05/25 09:45:17;;;;;;;;;;;;;;;-145.19;100.00;57938.22;5032472;28;19921;-73
2022/05/25 09:47:44;;;;;;;;;;;;;;;-145.19;100.00;57938.22;5032707;28;19933;-73
2022/05/25 09:50:30;;;;;;;;;;;;;;;-145.19;100.00;57938.22;5032715;28;19913;-73
2022/05/25 09:52:55;;;;;;;;;;;;;;;-145.19;100.00;57938.22;5016504;28;19924;-73
2022/05/25 09:55:44;;;;;;;;;;;;;;;-145.19;100.00;57938.22;5032752;28;19913;-73
2022/05/25 09:58:11;;;;;;;;;;;;;;;-145.19;100.00;57938.22;5020305;28;20051;-73
2022/05/25 10:00:36;;;;;;;;;;;;;;;-145.19;100.00;57938.22;5033359;28;19920;-73
2022/05/25 10:03:04;;;;;;;;;;;;;;;-145.19;100.00;57938.22;5033018;28;19920;-73
2022/05/25 10:05:43;;;;;;;;;;;;;;;-145.19;100.00;57938.22;5032210;28;19917;-73
2022/05/25 10:08:12;;;;;;;;;;;;;;;-145.19;100.00;57938.22;5032662;28;19952;-73
2022/05/25 10:11:03;;;;;;;;;;;;;;;-145.19;100.00;57938.22;5033006;28;19913;-73
2022/05/25 10:13:36;;;;;;;;;;;;;;;-145.19;100.00;57938.22;5027750;28;20000;-73
2022/05/25 10:16:18;;;;;;;;;;;;;;;-145.19;100.00;57938.22;5033417;28;19916;-73
2022/05/25 10:18:45;;;;;;;;;;;;;;;-145.19;100.00;57938.22;5033036;28;20070;-73
2022/05/25 10:21:13;;;;;;;;;;;;;;;-145.19;100.00;57938.22;5033391;28;19920;-73
2022/05/25 10:23:41;;;;;;;;;;;;;;;-145.19;100.00;57938.22;5014068;28;20025;-73
2022/05/25 10:26:17;;;;;;;;;;;;;;;-145.19;100.00;57938.22;5032824;28;19936;-73
2022/05/25 10:28:54;;;;;;;;;;;;;;;-145.19;100.00;57938.22;5031672;28;19913;-73
2022/05/25 10:36:57;;;;;;;;;;;;;;;-145.19;100.00;57938.22;5029933;28;19913;-73
2022/05/25 10:39:24;;;;;;;;;;;;;;;-145.19;100.00;57938.22;5031025;28;19971;-73
2022/05/25 10:41:59;;;;;;;;;;;;;;;-145.19;100.00;57938.22;5032576;28;19936;-73
2022/05/25 10:44:25;;;;;;;;;;;;;;;-145.19;100.00;57938.22;5031941;28;19917;-73
2022/05/25 10:46:57;;;;;;;;;;;;;;;-145.19;100.00;57938.22;5022801;28;19983;-73
2022/05/25 10:49:40;;;;;;;;;;;;;;;-145.19;100.00;57938.22;5028933;28;20296;-73
2022/05/25 10:52:21;;;;;;;;;;;;;;;-145.19;100.00;57938.22;5032188;28;19919;-73
2022/05/25 10:54:50;;;;;;;;;;;;;;;-145.19;100.00;57938.22;5032089;28;20000;-73
2022/05/25 10:57:36;;;;;;;;;;;;;;;-145.19;100.00;57938.22;5032014;28;19917;-72
2022/05/25 11:00:03;;;;;;;;;;;;;;;-145.19;100.00;57938.22;5031617;28;19917;-73
2022/05/25 11:02:28;;;;;;;;;;;;;;;-145.19;100.00;57938.22;5031047;28;19956;-73
2022/05/25 11:05:06;;;;;;;;;;;;;;;-145.19;100.00;57938.22;5032067;28;19948;-73
2022/05/25 11:07:37;;;;;;;;;;;;;;;-145.19;100.00;57938.22;5031777;28;19913;-73
2022/05/25 11:10:16;;;;;;;;;;;;;;;-145.19;100.00;57938.22;5031231;28;19916;-73
2022/05/25 11:12:44;;;;;;;;;;;;;;;-145.19;100.00;57938.22;5030609;28;19944;-73
2022/05/25 11:15:15;;;;;;;;;;;;;;;-145.19;100.00;57938.22;5031154;28;20292;-73
2022/05/25 11:17:41;;;;;;;;;;;;;;;-145.19;100.00;57938.22;5031258;28;19920;-73
2022/05/25 11:20:06;;;;;;;;;;;;;;;-145.19;100.00;57938.22;5031530;28;20378;-73
2022/05/25 11:22:40;;;;;;;;;;;;;;;-145.19;100.00;57938.22;5030808;28;19967;-73
2022/05/25 11:25:05;;;;;;;;;;;;;;;-145.19;100.00;57938.22;5031345;28;19913;-73
2022/05/25 11:27:34;;;;;;;;;;;;;;;-145.19;100.00;57938.22;5031346;28;19967;-73
2022/05/25 11:30:13;;;;;;;;;;;;;;;-145.19;100.00;57938.22;5031723;28;20425;-73
2022/05/25 11:32:57;;;;;;;;;;;;;;;-145.19;100.00;57938.22;5031495;28;19963;-73
2022/05/25 11:35:40;;;;;;;;;;;;;;;-145.19;100.00;57938.22;5030586;28;19919;-73
2022/05/25 11:38:18;;;;;;;;;;;;;;;-145.19;100.00;57938.22;5013902;28;19913;-73
2022/05/25 11:41:02;;;;;;;;;;;;;;;-145.19;100.00;57938.22;5030397;28;20258;-73
2022/05/25 11:43:49;;;;;;;;;;;;;;;-145.19;100.00;57938.22;5025648;28;19924;-73
2022/05/25 11:46:20;;;;;;;;;;;;;;;-145.19;100.00;57938.22;5021580;28;19943;-73
2022/05/25 11:48:48;;;;;;;;;;;;;;;-145.19;100.00;57938.22;5019626;28;20278;-73
2022/05/25 11:51:25;;;;;;;;;;;;;;;-145.19;100.00;57938.22;5021377;28;19917;-73
2022/05/25 11:53:55;;;;;;;;;;;;;;;-145.19;100.00;57938.22;5017732;28;19918;-73
2022/05/25 11:56:30;;;;;;;;;;;;;;;-145.19;100.00;57938.22;5021545;28;19936;-73
2022/05/25 11:59:14;;;;;;;;;;;;;;;-145.19;100.00;57938.22;5017007;28;19921;-73
2022/05/25 12:01:58;;;;;;;;;;;;;;;-145.19;100.00;57938.22;5019231;28;20380;-73
2022/05/25 12:04:38;;;;;;;;;;;;;;;-145.19;100.00;57938.22;5018486;28;19932;-73
2022/05/25 12:07:10;;;;;;;;;;;;;;;-145.19;100.00;57938.22;5011141;28;19960;-73
2022/05/25 12:09:45;;;;;;;;;;;;;;;-145.19;100.00;57938.22;5009607;28;20406;-73
2022/05/25 12:12:10;;;;;;;;;;;;;;;-145.19;100.00;57938.22;5013876;28;19921;-73
2022/05/25 12:14:41;;;;;;;;;;;;;;;-145.19;100.00;57938.22;5012117;28;19913;-73
2022/05/25 12:17:12;;;;;;;;;;;;;;;-145.19;100.00;57938.22;5031143;28;20011;-73
2022/05/25 12:19:39;;;;;;;;;;;;;;;-145.19;100.00;57938.22;5029902;28;19917;-73
2022/05/25 12:22:08;;;;;;;;;;;;;;;-145.19;100.00;57938.22;5030359;28;19912;-73
2022/05/25 12:24:41;;;;;;;;;;;;;;;-145.19;100.00;57938.22;5029893;28;20408;-73
2022/05/25 12:27:11;;;;;;;;;;;;;;;-145.19;100.00;57938.22;5031000;28;19939;-73
2022/05/25 12:29:48;;;;;;;;;;;;;;;-145.19;100.00;57938.22;5013905;28;19917;-73
2022/05/25 12:32:13;;;;;;;;;;;;;;;-145.19;100.00;57938.22;5011107;28;19932;-73
2022/05/25 12:34:40;;;;;;;;;;;;;;;-145.19;100.00;57938.22;5010236;28;20475;-73
2022/05/25 12:37:07;;;;;;;;;;;;;;;-145.19;100.00;57938.22;5010983;28;19913;-73
2022/05/25 12:39:47;;;;;;;;;;;;;;;-145.19;100.00;57938.22;5009660;28;19914;-73
2022/05/25 12:42:24;;;;;;;;;;;;;;;-145.19;100.00;57938.22;5010834;28;19921;-73
2022/05/25 12:50:47;;;;;;;;;;;;;;;-145.19;100.00;57938.22;5009900;28;19979;-73
2022/05/25 12:53:28;;;;;;;;;;;;;;;-145.19;100.00;57938.22;5010493;28;19932;-73
2022/05/25 12:55:54;;;;;;;;;;;;;;;-145.19;100.00;57938.22;5009773;28;19917;-73
2022/05/25 12:58:33;;;;;;;;;;;;;;;-145.19;100.00;57938.22;5010543;28;19925;-73
2022/05/25 13:01:06;;;;;;;;;;;;;;;-145.19;100.00;57938.22;5009586;28;20011;-71
2022/05/25 13:03:39;;;;;;;;;;;;;;;-145.19;100.00;57938.22;5010060;28;19925;-67